Hineston, Louisiana
Current Conditions -  °F | °C
As of 9:54 AM on Tuesday 21 Oct 2014 (Local Time) from KBKB Reporting Station
Clear Clear  
Wind Chill: 71°   Ceiling: Unl
Heat Index: 71°   Visibility: 10mi
Dew Point: 54°   Wind: 5mph
Humidity: 55%   Direction: NA
Pressure: 30.09"   Gusts: NA
Location:  31.14°N, 92.76°W
Report Text: KBKB 211454Z AUTO VRB04KT 10SM CLR 22/12 A3009 RMK AO2 SLP216 T02170122 51016
Loading
Personal Weather Stations






























Interactive Weather Map
Tropical Storm Tracking
New forecast layout! Learn more

10-Day Weather Forecast

Advertisements
Track Severe Weather on mobile